Time;durP1;ratioP1;P1;durP2;ratioP2;P2;SDS_P1;SDS_P2;PMS_P1;PMS_P2;Temp;Humidity;BMP_temperature;BMP_pressure;BME280_temperature;BME280_humidity;BME280_pressure;Samples;Min_cycle;Max_cycle;Signal;HPM_P1;HPM_P2
2021/11/17 02:25:53;;;;;;;14.93;8.63;;;;;;;;;;5065590;28;20044;-77
2021/11/17 02:28:30;;;;;;;15.23;9.32;;;;;;;;;;5064732;28;20037;-75
2021/11/17 02:31:23;;;;;;;14.20;8.65;;;;;;;;;;5065001;28;20029;-76
2021/11/17 02:34:26;;;;;;;14.63;8.60;;;;;;;;;;5066096;28;20025;-74
2021/11/17 02:36:58;;;;;;;15.23;8.60;;;;;;;;;;5065546;28;20324;-75
2021/11/17 02:39:42;;;;;;;14.60;8.85;;;;;;;;;;5047634;28;20386;-76
2021/11/17 02:42:10;;;;;;;;;;;;;;;;;;5066060;28;20497;-75
2021/11/17 02:45:06;;;;;;;14.90;9.00;;;;;;;;;;5065590;28;19915;-76
2021/11/17 02:47:32;;;;;;;17.52;9.48;;;;;;;;;;5065343;28;20102;-75
2021/11/17 02:50:09;;;;;;;19.33;9.38;;;;;;;;;;5065738;28;20056;-77
2021/11/17 02:53:10;;;;;;;15.88;9.10;;;;;;;;;;5047423;28;20422;-75
2021/11/17 02:55:39;;;;;;;16.38;9.23;;;;;;;;;;5043240;28;20041;-75
2021/11/17 02:58:36;;;;;;;17.27;9.48;;;;;;;;;;5064581;28;20053;-77
2021/11/17 03:01:23;;;;;;;17.50;9.05;;;;;;;;;;5060620;28;20446;-75
2021/11/17 03:04:08;;;;;;;16.17;9.50;;;;;;;;;;5046846;28;20079;-75
2021/11/17 03:06:49;;;;;;;15.70;8.90;;;;;;;;;;5047222;28;20056;-76
2021/11/17 03:09:38;;;;;;;16.90;9.30;;;;;;;;;;5046918;28;20071;-76
2021/11/17 03:12:26;;;;;;;14.85;8.63;;;;;;;;;;5064848;28;20155;-76
2021/11/17 03:15:01;;;;;;;14.52;8.13;;;;;;;;;;5064331;28;20033;-76
2021/11/17 03:18:00;;;;;;;14.63;8.00;;;;;;;;;;5047045;28;20031;-76
2021/11/17 03:21:03;;;;;;;13.38;7.45;;;;;;;;;;5046568;28;20033;-77
2021/11/17 03:23:43;;;;;;;15.07;8.13;;;;;;;;;;5064260;28;20059;-76
2021/11/17 03:26:24;;;;;;;14.57;8.05;;;;;;;;;;5046774;28;20068;-77
2021/11/17 03:28:53;;;;;;;15.52;8.05;;;;;;;;;;5030008;28;20039;-76
2021/11/17 03:31:46;;;;;;;21.10;8.88;;;;;;;;;;5063358;28;20041;-77
2021/11/17 03:34:23;;;;;;;15.88;9.30;;;;;;;;;;5063199;28;20040;-78
2021/11/17 03:37:14;;;;;;;17.77;9.85;;;;;;;;;;5046754;28;20037;-77
2021/11/17 03:40:04;;;;;;;16.45;10.05;;;;;;;;;;5063590;28;20109;-78
2021/11/17 03:43:01;;;;;;;19.23;10.90;;;;;;;;;;5063321;28;20032;-78
2021/11/17 03:45:50;;;;;;;20.38;11.07;;;;;;;;;;5027306;28;20044;-78
2021/11/17 03:48:25;;;;;;;18.23;9.32;;;;;;;;;;5029886;28;20033;-78
2021/11/17 03:51:03;;;;;;;18.65;10.32;;;;;;;;;;5064470;28;20086;-77
2021/11/17 03:53:57;;;;;;;23.13;10.70;;;;;;;;;;5046107;28;20032;-77
2021/11/17 03:56:32;;;;;;;19.58;9.50;;;;;;;;;;5023489;28;20053;-77
2021/11/17 03:59:10;;;;;;;17.58;9.65;;;;;;;;;;5062465;28;20025;-77
2021/11/17 04:02:01;;;;;;;16.67;9.27;;;;;;;;;;5063580;28;20501;-77
2021/11/17 04:04:47;;;;;;;13.65;8.00;;;;;;;;;;5045170;28;20413;-77
2021/11/17 04:07:12;;;;;;;16.58;9.10;;;;;;;;;;5005482;28;20037;-78
2021/11/17 04:09:59;;;;;;;17.48;8.18;;;;;;;;;;5045734;28;20139;-77
2021/11/17 04:12:34;;;;;;;15.13;7.53;;;;;;;;;;5045900;28;20029;-77
2021/11/17 04:15:12;;;;;;;14.00;7.78;;;;;;;;;;5046007;28;20067;-77
2021/11/17 04:17:56;;;;;;;13.77;7.15;;;;;;;;;;5062432;28;20029;-77
2021/11/17 04:20:33;;;;;;;19.25;7.45;;;;;;;;;;5044901;28;20512;-79
2021/11/17 04:22:59;;;;;;;14.73;7.03;;;;;;;;;;5063758;28;20033;-76
2021/11/17 04:25:24;;;;;;;13.13;7.45;;;;;;;;;;5062723;28;20056;-78
2021/11/17 04:28:01;;;;;;;14.25;7.05;;;;;;;;;;5045412;28;20036;-76
2021/11/17 04:30:54;;;;;;;12.88;6.53;;;;;;;;;;5063584;28;20088;-78
2021/11/17 04:33:46;;;;;;;15.10;8.02;;;;;;;;;;5044446;28;20024;-78
2021/11/17 04:36:17;;;;;;;16.65;7.95;;;;;;;;;;5043558;28;20100;-78
2021/11/17 04:39:04;;;;;;;16.38;8.10;;;;;;;;;;5045473;28;20025;-77
2021/11/17 04:41:45;;;;;;;16.65;7.80;;;;;;;;;;5063832;28;20088;-77
2021/11/17 04:44:40;;;;;;;22.30;8.95;;;;;;;;;;5062095;28;20029;-76
2021/11/17 04:47:33;;;;;;;20.13;8.10;;;;;;;;;;5041266;28;20040;-76
2021/11/17 04:50:30;;;;;;;20.38;8.30;;;;;;;;;;5062332;28;20053;-76
2021/11/17 04:53:07;;;;;;;58.10;29.48;;;;;;;;;;5045133;28;20139;-77
2021/11/17 04:55:41;;;;;;;21.45;9.32;;;;;;;;;;5045620;28;20036;-76
2021/11/17 04:58:35;;;;;;;20.23;10.18;;;;;;;;;;5045113;28;20217;-76
2021/11/17 05:01:28;;;;;;;15.45;5.75;;;;;;;;;;5061985;28;20021;-77
2021/11/17 05:04:32;;;;;;;14.70;5.97;;;;;;;;;;5043481;28;20040;-77
2021/11/17 05:07:12;;;;;;;17.05;6.88;;;;;;;;;;4964107;28;20052;-76
2021/11/17 05:09:43;;;;;;;19.60;7.57;;;;;;;;;;5061054;28;20029;-78
2021/11/17 05:12:21;;;;;;;21.65;8.43;;;;;;;;;;5062556;28;20084;-77
2021/11/17 05:15:15;;;;;;;22.33;8.77;;;;;;;;;;5062412;28;20500;-79
2021/11/17 05:17:56;;;;;;;23.02;9.15;;;;;;;;;;5044495;28;20037;-78
2021/11/17 05:20:35;;;;;;;19.83;8.43;;;;;;;;;;5061735;28;20064;-77
2021/11/17 05:23:36;;;;;;;24.08;8.88;;;;;;;;;;5061059;28;20056;-76
2021/11/17 05:26:10;;;;;;;25.48;9.90;;;;;;;;;;5044558;28;20077;-77
2021/11/17 05:28:57;;;;;;;28.88;9.98;;;;;;;;;;5062559;28;20033;-78
2021/11/17 05:31:38;;;;;;;23.50;9.23;;;;;;;;;;5027659;28;20076;-77
2021/11/17 05:34:18;;;;;;;20.67;8.90;;;;;;;;;;5061920;28;20085;-77
2021/11/17 05:36:56;;;;;;;25.17;9.80;;;;;;;;;;5060881;28;20039;-77
2021/11/17 05:39:27;;;;;;;22.38;9.10;;;;;;;;;;5061344;28;20036;-76
2021/11/17 05:42:17;;;;;;;22.42;9.85;;;;;;;;;;5061678;28;20083;-76
2021/11/17 05:44:59;;;;;;;21.17;8.30;;;;;;;;;;5061962;28;20036;-75
2021/11/17 05:47:52;;;;;;;23.20;7.80;;;;;;;;;;5060238;28;20029;-76
2021/11/17 05:50:38;;;;;;;17.75;7.38;;;;;;;;;;5062512;28;20029;-76
2021/11/17 05:53:26;;;;;;;18.58;7.22;;;;;;;;;;5044569;28;20029;-76
2021/11/17 05:56:18;;;;;;;17.92;7.18;;;;;;;;;;5030203;28;20096;-77
2021/11/17 05:58:49;;;;;;;19.88;7.47;;;;;;;;;;5038904;28;20044;-76
2021/11/17 06:01:38;;;;;;;19.13;7.68;;;;;;;;;;5065945;28;20108;-78
2021/11/17 06:04:05;;;;;;;18.00;6.88;;;;;;;;;;5047723;28;20056;-76
2021/11/17 06:06:38;;;;;;;17.70;7.10;;;;;;;;;;5065085;28;20089;-78
2021/11/17 06:09:06;;;;;;;20.27;8.02;;;;;;;;;;5064745;28;20032;-78
2021/11/17 06:11:42;;;;;;;17.52;7.25;;;;;;;;;;5064355;28;20033;-78
2021/11/17 06:14:19;;;;;;;24.42;8.63;;;;;;;;;;5064246;28;20087;-79
2021/11/17 06:16:49;;;;;;;21.85;7.30;;;;;;;;;;5065360;28;20350;-77
2021/11/17 06:19:18;;;;;;;16.77;7.45;;;;;;;;;;5065804;28;20033;-78
2021/11/17 06:21:44;;;;;;;22.25;7.53;;;;;;;;;;5065829;28;20039;-77
2021/11/17 06:24:15;;;;;;;20.55;7.45;;;;;;;;;;5047128;28;20032;-76
2021/11/17 06:26:44;;;;;;;18.23;7.03;;;;;;;;;;5046205;28;20028;-78
2021/11/17 06:29:15;;;;;;;17.20;7.15;;;;;;;;;;5063298;28;20036;-79
2021/11/17 06:31:41;;;;;;;16.40;6.35;;;;;;;;;;5047049;28;20039;-76
2021/11/17 06:34:42;;;;;;;18.05;6.05;;;;;;;;;;5064362;28;20405;-77
2021/11/17 06:37:13;;;;;;;16.77;6.13;;;;;;;;;;4981932;28;20039;-78
2021/11/17 06:39:42;;;;;;;20.38;6.68;;;;;;;;;;5030977;28;20041;-77
2021/11/17 06:42:15;;;;;;;16.40;6.35;;;;;;;;;;5045286;28;20033;-76
2021/11/17 06:44:41;;;;;;;15.25;6.35;;;;;;;;;;5044593;28;20041;-76
2021/11/17 06:47:08;;;;;;;14.73;5.72;;;;;;;;;;5046551;28;20029;-76
2021/11/17 06:49:34;;;;;;;17.85;6.20;;;;;;;;;;5064329;28;20039;-79
2021/11/17 06:51:59;;;;;;;21.85;6.75;;;;;;;;;;5065173;28;20112;-77
2021/11/17 06:54:25;;;;;;;15.02;5.90;;;;;;;;;;5064042;28;20048;-76
2021/11/17 06:56:50;;;;;;;12.98;5.07;;;;;;;;;;5064142;28;20092;-76
2021/11/17 06:59:16;;;;;;;14.82;5.40;;;;;;;;;;5046110;28;20029;-78
2021/11/17 07:01:42;;;;;;;15.18;5.63;;;;;;;;;;5063799;28;20501;-77
2021/11/17 07:04:07;;;;;;;14.40;5.00;;;;;;;;;;5064561;28;20029;-78
2021/11/17 07:06:33;;;;;;;13.60;5.65;;;;;;;;;;5063724;28;20540;-77
2021/11/17 07:08:59;;;;;;;18.45;7.20;;;;;;;;;;5064202;28;20501;-77
2021/11/17 07:11:25;;;;;;;12.77;5.03;;;;;;;;;;5065022;28;20029;-77
2021/11/17 07:13:51;;;;;;;16.38;6.78;;;;;;;;;;5046108;28;20029;-78
2021/11/17 07:16:17;;;;;;;17.80;6.25;;;;;;;;;;5064539;28;20032;-76
2021/11/17 07:18:43;;;;;;;15.73;5.55;;;;;;;;;;5064111;28;20028;-78
2021/11/17 07:21:08;;;;;;;18.80;6.57;;;;;;;;;;5046859;28;20132;-77
2021/11/17 07:23:34;;;;;;;15.55;6.10;;;;;;;;;;5045897;28;20481;-77
2021/11/17 07:26:01;;;;;;;17.48;6.28;;;;;;;;;;5045434;28;20564;-77
2021/11/17 07:28:26;;;;;;;14.57;5.75;;;;;;;;;;5063324;28;20054;-78
2021/11/17 07:30:52;;;;;;;13.18;5.63;;;;;;;;;;5064255;28;20033;-77
2021/11/17 07:33:17;;;;;;;14.35;6.18;;;;;;;;;;5064183;28;20093;-77
2021/11/17 07:35:48;;;;;;;13.27;5.57;;;;;;;;;;5063774;28;20029;-77
2021/11/17 07:38:18;;;;;;;14.73;5.63;;;;;;;;;;5063442;28;20029;-78
2021/11/17 07:40:45;;;;;;;20.05;6.32;;;;;;;;;;5064198;28;20055;-77
2021/11/17 07:43:12;;;;;;;15.48;5.93;;;;;;;;;;5063098;28;20040;-78
2021/11/17 07:45:39;;;;;;;16.10;6.40;;;;;;;;;;5042661;28;20084;-77
2021/11/17 07:48:06;;;;;;;14.40;6.00;;;;;;;;;;5044996;28;20025;-78
2021/11/17 07:50:31;;;;;;;15.25;5.78;;;;;;;;;;5046150;28;20099;-77
2021/11/17 07:52:57;;;;;;;16.38;6.00;;;;;;;;;;5064326;28;20112;-77
2021/11/17 07:55:23;;;;;;;18.20;6.72;;;;;;;;;;5045727;28;20029;-74
2021/11/17 07:57:51;;;;;;;15.00;6.50;;;;;;;;;;5045943;28;20052;-78
2021/11/17 08:00:20;;;;;;;17.23;6.28;;;;;;;;;;5063648;28;20083;-75
2021/11/17 08:02:46;;;;;;;16.50;7.18;;;;;;;;;;5063317;28;20560;-75
2021/11/17 08:05:12;;;;;;;20.33;7.32;;;;;;;;;;5063922;28;20037;-75
2021/11/17 08:07:39;;;;;;;20.20;7.78;;;;;;;;;;5063992;28;20040;-76
2021/11/17 08:10:11;;;;;;;18.23;6.97;;;;;;;;;;5063395;28;20088;-75
2021/11/17 08:12:37;;;;;;;17.95;7.85;;;;;;;;;;5063623;28;20025;-76
2021/11/17 08:15:03;;;;;;;21.27;7.88;;;;;;;;;;5045168;28;20031;-74
2021/11/17 08:17:28;;;;;;;23.60;7.75;;;;;;;;;;5062712;28;20061;-73
2021/11/17 08:19:53;;;;;;;17.23;7.05;;;;;;;;;;5045467;28;20076;-75
2021/11/17 08:22:19;;;;;;;19.23;7.60;;;;;;;;;;5063201;28;20155;-75
2021/11/17 08:24:48;;;;;;;21.88;8.30;;;;;;;;;;5063348;28;20025;-75
2021/11/17 08:27:20;;;;;;;19.05;7.63;;;;;;;;;;5063245;28;20025;-75
2021/11/17 08:29:53;;;;;;;19.00;6.88;;;;;;;;;;5045567;28;20085;-76
2021/11/17 08:32:20;;;;;;;17.42;6.40;;;;;;;;;;5063083;28;20036;-75
2021/11/17 08:34:47;;;;;;;16.23;6.43;;;;;;;;;;5063467;28;20081;-77
2021/11/17 08:37:13;;;;;;;17.42;7.35;;;;;;;;;;5062733;28;20044;-77
2021/11/17 08:39:43;;;;;;;16.05;7.10;;;;;;;;;;5063175;28;20036;-75
2021/11/17 08:42:12;;;;;;;15.25;6.47;;;;;;;;;;5062729;28;20045;-76
2021/11/17 08:44:42;;;;;;;16.77;6.38;;;;;;;;;;5044886;28;20025;-76
2021/11/17 08:47:10;;;;;;;15.65;6.80;;;;;;;;;;5044894;28;20530;-78
2021/11/17 08:49:36;;;;;;;16.67;7.18;;;;;;;;;;5043583;28;20230;-77
2021/11/17 08:52:02;;;;;;;16.42;6.20;;;;;;;;;;5063482;28;20057;-76
2021/11/17 08:54:29;;;;;;;16.38;6.80;;;;;;;;;;5062653;28;20377;-76
2021/11/17 08:56:56;;;;;;;15.38;6.50;;;;;;;;;;5062753;28;20049;-77
2021/11/17 08:59:22;;;;;;;15.02;5.70;;;;;;;;;;5045354;28;20088;-75
2021/11/17 09:01:48;;;;;;;13.13;6.13;;;;;;;;;;5063174;28;20052;-76
2021/11/17 09:04:13;;;;;;;13.05;5.57;;;;;;;;;;5043602;28;20033;-76
2021/11/17 09:06:39;;;;;;;12.02;5.57;;;;;;;;;;5062777;28;20041;-76
2021/11/17 09:09:06;;;;;;;11.10;4.80;;;;;;;;;;5044471;28;20089;-74
2021/11/17 09:11:36;;;;;;;12.13;5.10;;;;;;;;;;5045109;28;20109;-75
2021/11/17 09:14:03;;;;;;;11.00;4.55;;;;;;;;;;5062529;28;20032;-75
2021/11/17 09:16:30;;;;;;;10.27;4.82;;;;;;;;;;5045026;28;20100;-75
2021/11/17 09:19:02;;;;;;;9.32;4.65;;;;;;;;;;5044890;28;20481;-74
2021/11/17 09:21:30;;;;;;;11.00;5.07;;;;;;;;;;5044897;28;20029;-76
2021/11/17 09:23:56;;;;;;;11.02;5.07;;;;;;;;;;5062394;28;20033;-76
2021/11/17 09:26:23;;;;;;;11.75;5.45;;;;;;;;;;5062544;28;20159;-76
2021/11/17 09:28:53;;;;;;;10.82;5.07;;;;;;;;;;5062752;28;20064;-76
2021/11/17 09:31:20;;;;;;;11.77;4.50;;;;;;;;;;5048408;28;20083;-75
2021/11/17 09:33:46;;;;;;;14.13;4.93;;;;;;;;;;5048711;28;20068;-75
2021/11/17 09:36:16;;;;;;;12.55;4.50;;;;;;;;;;5047960;28;20021;-76
2021/11/17 09:38:42;;;;;;;13.55;5.40;;;;;;;;;;5065678;28;20088;-76
2021/11/17 09:41:11;;;;;;;13.75;4.95;;;;;;;;;;5066617;28;20032;-75
2021/11/17 09:43:45;;;;;;;14.00;5.82;;;;;;;;;;5065697;28;20109;-77
2021/11/17 09:46:12;;;;;;;12.50;5.03;;;;;;;;;;5065713;28;20078;-76
2021/11/17 09:48:43;;;;;;;12.52;5.40;;;;;;;;;;5065492;28;20032;-77
2021/11/17 09:51:15;;;;;;;14.32;6.18;;;;;;;;;;5066257;28;20025;-76
2021/11/17 09:54:00;;;;;;;12.48;4.95;;;;;;;;;;5048323;28;20029;-76
2021/11/17 09:56:36;;;;;;;13.23;5.45;;;;;;;;;;5048014;28;20052;-76
2021/11/17 09:59:07;;;;;;;14.15;5.35;;;;;;;;;;5066573;28;20025;-75
2021/11/17 10:01:45;;;;;;;11.90;5.50;;;;;;;;;;5048459;28;20025;-76
2021/11/17 10:04:36;;;;;;;10.38;4.63;;;;;;;;;;5066089;28;20025;-77
2021/11/17 10:15:10;;;;;;;12.43;4.95;;;;;;;;;;5066092;28;20171;-75
2021/11/17 10:17:46;;;;;;;12.70;5.05;;;;;;;;;;5047509;28;20049;-74
2021/11/17 10:20:31;;;;;;;10.98;4.57;;;;;;;;;;5065858;28;20382;-76
2021/11/17 10:23:06;;;;;;;11.18;4.28;;;;;;;;;;5065362;28;20036;-75
2021/11/17 10:25:55;;;;;;;12.77;4.40;;;;;;;;;;5065495;28;20029;-77
2021/11/17 10:28:53;;;;;;;9.40;4.10;;;;;;;;;;5046920;28;20075;-77
2021/11/17 10:31:21;;;;;;;10.10;3.92;;;;;;;;;;5065435;28;20437;-76
2021/11/17 10:34:10;;;;;;;9.50;3.60;;;;;;;;;;5046991;28;20043;-75
2021/11/17 10:36:51;;;;;;;11.57;3.90;;;;;;;;;;5065413;28;20029;-78
2021/11/17 10:39:16;;;;;;;8.88;3.80;;;;;;;;;;5065525;28;20025;-75
2021/11/17 10:41:52;;;;;;;9.63;3.95;;;;;;;;;;5047258;28;20095;-79
2021/11/17 10:44:30;;;;;;;9.05;3.67;;;;;;;;;;5065040;28;20045;-78
2021/11/17 10:47:00;;;;;;;8.23;3.25;;;;;;;;;;5045979;28;20029;-79
2021/11/17 10:49:28;;;;;;;10.63;3.75;;;;;;;;;;5064787;28;20083;-79
2021/11/17 10:52:03;;;;;;;8.60;3.97;;;;;;;;;;5046024;28;20048;-78
2021/11/17 10:54:32;;;;;;;9.30;3.78;;;;;;;;;;5063479;28;20057;-80
2021/11/17 10:57:09;;;;;;;9.63;4.28;;;;;;;;;;5046599;28;20055;-79
2021/11/17 10:59:36;;;;;;;10.38;3.95;;;;;;;;;;5064079;28;20025;-76
2021/11/17 11:02:04;;;;;;;9.18;3.50;;;;;;;;;;5064554;28;20029;-78
2021/11/17 11:04:37;;;;;;;9.70;3.53;;;;;;;;;;5064530;28;20114;-76
2021/11/17 11:07:09;;;;;;;9.05;3.70;;;;;;;;;;5064921;28;20091;-76
2021/11/17 11:09:54;;;;;;;7.22;3.08;;;;;;;;;;5064496;28;20048;-77
2021/11/17 11:12:23;;;;;;;6.68;2.80;;;;;;;;;;5064962;28;20040;-76
2021/11/17 11:14:53;;;;;;;6.97;3.05;;;;;;;;;;5064885;28;20029;-77
2021/11/17 11:17:27;;;;;;;9.75;3.47;;;;;;;;;;5064403;28;20089;-76
2021/11/17 11:20:15;;;;;;;9.07;3.42;;;;;;;;;;5046944;28;20100;-78
2021/11/17 11:23:02;;;;;;;9.65;3.85;;;;;;;;;;5046723;28;20029;-78
2021/11/17 11:25:37;;;;;;;9.93;3.58;;;;;;;;;;5064808;28;20025;-78
2021/11/17 11:28:20;;;;;;;9.32;3.58;;;;;;;;;;5064616;28;20091;-78
2021/11/17 11:31:07;;;;;;;8.50;4.20;;;;;;;;;;5064696;28;20048;-79
2021/11/17 11:33:53;;;;;;;12.05;4.25;;;;;;;;;;5016210;28;20061;-79
2021/11/17 11:36:22;;;;;;;10.38;4.00;;;;;;;;;;5046345;28;20059;-76
2021/11/17 11:38:51;;;;;;;8.52;3.63;;;;;;;;;;5064278;28;20033;-79
2021/11/17 11:41:19;;;;;;;11.00;4.25;;;;;;;;;;5064422;28;20029;-78
2021/11/17 11:43:46;;;;;;;11.43;4.15;;;;;;;;;;5046346;28;20029;-80
2021/11/17 11:46:26;;;;;;;9.43;3.97;;;;;;;;;;5064382;28;20245;-77
2021/11/17 11:49:01;;;;;;;9.32;4.18;;;;;;;;;;5064044;28;20052;-77
2021/11/17 11:51:32;;;;;;;12.18;4.80;;;;;;;;;;5063820;28;20025;-78
2021/11/17 11:53:58;;;;;;;10.23;4.45;;;;;;;;;;5045506;28;20163;-76
2021/11/17 11:56:48;;;;;;;10.93;4.65;;;;;;;;;;5063927;28;20092;-78
2021/11/17 11:59:21;;;;;;;12.60;4.68;;;;;;;;;;5045793;28;20025;-78
2021/11/17 12:01:48;;;;;;;11.43;4.82;;;;;;;;;;5046127;28;20082;-77
2021/11/17 12:04:21;;;;;;;11.75;4.50;;;;;;;;;;5045912;28;20461;-78
2021/11/17 12:06:57;;;;;;;11.90;4.82;;;;;;;;;;5064105;28;20040;-78
2021/11/17 12:09:32;;;;;;;11.13;4.90;;;;;;;;;;5063845;28;20037;-77
2021/11/17 12:12:02;;;;;;;12.05;4.80;;;;;;;;;;5063676;28;20044;-78
2021/11/17 12:14:47;;;;;;;13.98;4.95;;;;;;;;;;5063674;28;20404;-77
2021/11/17 12:17:22;;;;;;;12.82;5.07;;;;;;;;;;5063928;28;20028;-77
2021/11/17 12:19:57;;;;;;;13.68;5.47;;;;;;;;;;5064292;28;20059;-77
2021/11/17 12:22:41;;;;;;;163.40;30.38;;;;;;;;;;5063919;28;20041;-77
2021/11/17 12:25:34;;;;;;;17.45;6.00;;;;;;;;;;5063844;28;20029;-78
2021/11/17 12:28:06;;;;;;;13.68;5.80;;;;;;;;;;5037414;28;20045;-76
2021/11/17 12:30:41;;;;;;;17.35;6.80;;;;;;;;;;5063567;28;20032;-78
2021/11/17 12:33:29;;;;;;;18.33;6.50;;;;;;;;;;5045658;28;20028;-78
2021/11/17 12:36:27;;;;;;;18.70;7.10;;;;;;;;;;5045808;28;20028;-78
2021/11/17 12:38:53;;;;;;;15.82;6.57;;;;;;;;;;5063370;28;20056;-76
2021/11/17 12:41:31;;;;;;;20.45;7.43;;;;;;;;;;5063353;28;20084;-75
2021/11/17 12:44:20;;;;;;;18.77;7.90;;;;;;;;;;5063133;28;20056;-79
2021/11/17 12:46:50;;;;;;;18.27;7.38;;;;;;;;;;5063060;28;20082;-76
2021/11/17 12:49:48;;;;;;;19.17;7.40;;;;;;;;;;5044582;28;20025;-77
2021/11/17 12:52:42;;;;;;;19.63;7.65;;;;;;;;;;5062498;28;20029;-78
2021/11/17 12:55:22;;;;;;;16.35;6.97;;;;;;;;;;5045737;28;20045;-76
2021/11/17 12:58:07;;;;;;;22.42;8.40;;;;;;;;;;5062900;28;20041;-77
2021/11/17 13:00:56;;;;;;;20.85;7.78;;;;;;;;;;5062014;28;20029;-78
2021/11/17 13:03:36;;;;;;;21.20;7.90;;;;;;;;;;5043338;28;20025;-78
2021/11/17 13:06:06;;;;;;;18.83;8.57;;;;;;;;;;5046324;28;20025;-78
2021/11/17 13:08:33;;;;;;;27.88;8.82;;;;;;;;;;5046721;28;20032;-79
2021/11/17 13:11:00;;;;;;;24.10;9.10;;;;;;;;;;5065237;28;20044;-78
2021/11/17 13:13:44;;;;;;;27.00;10.48;;;;;;;;;;5065704;28;20025;-75
2021/11/17 13:16:32;;;;;;;25.17;10.77;;;;;;;;;;5066778;28;20462;-76
2021/11/17 13:19:04;;;;;;;24.80;10.55;;;;;;;;;;5048791;28;20095;-76
2021/11/17 13:21:39;;;;;;;28.63;11.15;;;;;;;;;;5048764;28;20025;-74
2021/11/17 13:24:05;;;;;;;24.85;9.98;;;;;;;;;;5066304;28;20408;-74
2021/11/17 13:26:35;;;;;;;33.67;12.95;;;;;;;;;;5048456;28;20058;-78
2021/11/17 13:29:21;;;;;;;29.05;13.63;;;;;;;;;;5066543;28;20089;-78
2021/11/17 13:32:02;;;;;;;33.40;13.30;;;;;;;;;;5065745;28;20367;-78
2021/11/17 13:34:30;;;;;;;23.13;9.90;;;;;;;;;;5065694;28;20103;-78
2021/11/17 13:37:24;;;;;;;28.67;12.93;;;;;;;;;;5065950;28;20032;-78
2021/11/17 13:39:58;;;;;;;32.40;12.60;;;;;;;;;;5066607;28;20120;-79
2021/11/17 13:42:26;;;;;;;32.05;12.65;;;;;;;;;;5066680;28;20047;-80
2021/11/17 13:44:56;;;;;;;29.55;12.77;;;;;;;;;;5066845;28;20025;-79
2021/11/17 13:47:23;;;;;;;21.25;10.05;;;;;;;;;;5066678;28;20099;-78
2021/11/17 13:49:52;;;;;;;27.52;11.32;;;;;;;;;;5066701;28;20552;-80
2021/11/17 13:52:22;;;;;;;26.15;9.93;;;;;;;;;;5066841;28;20464;-79
2021/11/17 13:54:47;;;;;;;31.38;13.13;;;;;;;;;;5048448;28;20036;-79
2021/11/17 13:57:14;;;;;;;25.83;12.05;;;;;;;;;;5066114;28;20041;-79
2021/11/17 13:59:40;;;;;;;26.55;11.18;;;;;;;;;;5066325;28;20037;-80
2021/11/17 14:02:08;;;;;;;27.40;12.35;;;;;;;;;;5048433;28;20028;-80
2021/11/17 14:04:33;;;;;;;32.65;13.85;;;;;;;;;;5066513;28;20040;-79
2021/11/17 14:06:59;;;;;;;23.63;10.63;;;;;;;;;;5066443;28;20029;-81
2021/11/17 14:09:26;;;;;;;29.20;11.07;;;;;;;;;;5066022;28;20025;-78
2021/11/17 14:11:51;;;;;;;33.97;13.75;;;;;;;;;;5048173;28;20040;-78
2021/11/17 14:14:17;;;;;;;23.77;11.45;;;;;;;;;;5065585;28;20037;-77
2021/11/17 14:16:42;;;;;;;26.10;10.82;;;;;;;;;;5047112;28;20040;-78
2021/11/17 14:19:08;;;;;;;28.00;11.48;;;;;;;;;;5065413;28;20115;-77
2021/11/17 14:21:34;;;;;;;27.27;11.15;;;;;;;;;;5065706;28;20036;-80
2021/11/17 14:24:00;;;;;;;29.05;13.45;;;;;;;;;;5047204;28;20035;-78
2021/11/17 14:26:25;;;;;;;30.05;12.65;;;;;;;;;;5065267;28;20052;-78
2021/11/17 14:29:05;;;;;;;24.83;10.75;;;;;;;;;;5064923;28;20549;-77
2021/11/17 14:31:41;;;;;;;24.30;10.15;;;;;;;;;;5064236;28;20056;-77
2021/11/17 14:34:07;;;;;;;25.13;11.25;;;;;;;;;;5064726;28;20033;-79
2021/11/17 14:36:44;;;;;;;27.95;10.75;;;;;;;;;;5064709;28;20104;-78
2021/11/17 14:39:10;;;;;;;25.10;11.45;;;;;;;;;;5064673;28;20024;-77
2021/11/17 14:41:36;;;;;;;25.80;11.02;;;;;;;;;;5046639;28;20052;-79
2021/11/17 14:44:03;;;;;;;24.00;9.68;;;;;;;;;;5064639;28;20079;-78
2021/11/17 14:46:29;;;;;;;22.48;9.77;;;;;;;;;;5046340;28;20116;-79
2021/11/17 14:48:55;;;;;;;19.50;8.77;;;;;;;;;;5064855;28;20029;-77
2021/11/17 14:51:21;;;;;;;20.30;10.85;;;;;;;;;;5065072;28;20065;-79
2021/11/17 14:53:49;;;;;;;20.95;8.88;;;;;;;;;;5046735;28;20456;-76
2021/11/17 14:56:15;;;;;;;18.55;9.05;;;;;;;;;;5064973;28;20041;-79
2021/11/17 14:58:41;;;;;;;19.15;10.65;;;;;;;;;;5064700;28;20037;-80
2021/11/17 15:01:19;;;;;;;17.92;10.07;;;;;;;;;;5047056;28;20029;-73
2021/11/17 15:03:47;;;;;;;17.75;8.90;;;;;;;;;;5065493;28;20033;-79
2021/11/17 15:06:14;;;;;;;20.25;8.95;;;;;;;;;;5065335;28;20029;-73
2021/11/17 15:08:39;;;;;;;15.00;6.45;;;;;;;;;;5047206;28;20037;-77
2021/11/17 15:11:05;;;;;;;21.90;9.45;;;;;;;;;;5065434;28;20035;-76
2021/11/17 15:13:32;;;;;;;20.65;10.32;;;;;;;;;;5047649;28;20032;-77
2021/11/17 15:15:58;;;;;;;17.13;8.63;;;;;;;;;;5047744;28;20028;-76
2021/11/17 15:18:25;;;;;;;18.70;9.57;;;;;;;;;;5064745;28;20060;-75
2021/11/17 15:20:52;;;;;;;15.57;9.10;;;;;;;;;;5065109;28;20029;-78
2021/11/17 15:23:19;;;;;;;17.27;8.52;;;;;;;;;;5064860;28;20025;-76
2021/11/17 15:25:47;;;;;;;19.52;9.35;;;;;;;;;;5064326;28;20032;-76
2021/11/17 15:28:18;;;;;;;17.05;10.05;;;;;;;;;;5063491;28;20032;-77
2021/11/17 15:30:49;;;;;;;14.85;7.95;;;;;;;;;;5064429;28;20033;-77
2021/11/17 15:33:15;;;;;;;13.57;7.88;;;;;;;;;;5063811;28;20048;-79
2021/11/17 15:35:41;;;;;;;19.40;9.15;;;;;;;;;;5063819;28;20064;-77
2021/11/17 15:38:09;;;;;;;18.40;9.40;;;;;;;;;;5046006;28;20032;-75
2021/11/17 15:40:38;;;;;;;20.08;9.07;;;;;;;;;;5063973;28;20047;-78
2021/11/17 15:43:04;;;;;;;11.32;6.82;;;;;;;;;;5046024;28;20029;-75
2021/11/17 15:45:30;;;;;;;14.02;7.72;;;;;;;;;;5064339;28;20055;-76
2021/11/17 15:47:56;;;;;;;15.25;8.20;;;;;;;;;;5064071;28;20388;-76
2021/11/17 15:50:29;;;;;;;14.18;7.28;;;;;;;;;;5064067;28;20036;-75
2021/11/17 15:52:55;;;;;;;18.65;9.18;;;;;;;;;;5063641;28;20033;-74
2021/11/17 15:55:22;;;;;;;17.75;10.18;;;;;;;;;;5045180;28;20033;-74
2021/11/17 15:57:47;;;;;;;14.27;8.73;;;;;;;;;;5041127;28;20521;-77
2021/11/17 16:00:16;;;;;;;18.60;9.63;;;;;;;;;;5043818;28;20067;-78
2021/11/17 16:02:42;;;;;;;15.00;7.63;;;;;;;;;;5043777;28;20429;-78
2021/11/17 16:05:09;;;;;;;14.32;7.20;;;;;;;;;;5044199;28;20074;-78
2021/11/17 16:07:35;;;;;;;13.40;7.40;;;;;;;;;;5043794;28;20033;-78
2021/11/17 16:10:00;;;;;;;15.80;6.07;;;;;;;;;;5043993;28;20036;-76
2021/11/17 16:12:27;;;;;;;11.35;6.13;;;;;;;;;;5043916;28;20029;-78
2021/11/17 16:14:54;;;;;;;13.45;6.45;;;;;;;;;;5043762;28;20033;-78
2021/11/17 16:17:20;;;;;;;10.27;4.93;;;;;;;;;;5025958;28;20493;-76
2021/11/17 16:19:53;;;;;;;8.52;5.47;;;;;;;;;;5043842;28;20033;-76
2021/11/17 16:22:33;;;;;;;10.63;5.78;;;;;;;;;;5043923;28;20056;-76
2021/11/17 16:27:50;;;;;;;9.20;5.32;;;;;;;;;;5043398;28;20076;-78
2021/11/17 16:30:18;;;;;;;9.30;4.95;;;;;;;;;;5043724;28;20029;-76
2021/11/17 16:32:44;;;;;;;9.25;4.60;;;;;;;;;;5043333;28;20033;-76
2021/11/17 16:35:11;;;;;;;9.55;4.63;;;;;;;;;;5042920;28;20033;-74
2021/11/17 16:37:37;;;;;;;7.85;3.95;;;;;;;;;;5025415;28;20112;-77
2021/11/17 16:40:05;;;;;;;10.85;5.50;;;;;;;;;;5042836;28;20029;-76
2021/11/17 16:42:30;;;;;;;8.90;5.20;;;;;;;;;;5043309;28;20034;-76
2021/11/17 16:44:56;;;;;;;10.48;4.97;;;;;;;;;;5043486;28;20132;-76
2021/11/17 16:47:24;;;;;;;10.10;5.28;;;;;;;;;;5043166;28;20092;-76
2021/11/17 16:49:53;;;;;;;11.68;6.22;;;;;;;;;;5025416;28;20097;-75
2021/11/17 16:52:21;;;;;;;10.52;6.35;;;;;;;;;;5025268;28;20068;-76
2021/11/17 16:55:05;;;;;;;12.48;6.20;;;;;;;;;;5043262;28;20030;-75
2021/11/17 16:57:31;;;;;;;13.13;6.75;;;;;;;;;;5056829;28;20087;-76
2021/11/17 16:59:58;;;;;;;9.73;5.55;;;;;;;;;;5045063;28;20063;-75
2021/11/17 17:02:25;;;;;;;10.38;6.15;;;;;;;;;;5044771;28;20037;-76
2021/11/17 17:04:52;;;;;;;9.98;5.47;;;;;;;;;;5062969;28;20025;-75
2021/11/17 17:07:19;;;;;;;8.00;4.25;;;;;;;;;;5062704;28;20033;-73
2021/11/17 17:09:49;;;;;;;6.38;3.67;;;;;;;;;;5045031;28;20029;-75
2021/11/17 17:12:15;;;;;;;6.25;2.70;;;;;;;;;;5062848;28;20059;-74
2021/11/17 17:14:43;;;;;;;5.97;3.25;;;;;;;;;;5045017;28;20033;-73
2021/11/17 17:17:08;;;;;;;6.63;3.13;;;;;;;;;;5062786;28;20036;-75
2021/11/17 17:19:35;;;;;;;6.45;3.00;;;;;;;;;;5062765;28;20354;-74
2021/11/17 17:22:05;;;;;;;5.97;3.65;;;;;;;;;;5063188;28;20390;-74
2021/11/17 17:24:33;;;;;;;9.10;3.38;;;;;;;;;;5062690;28;20055;-74
2021/11/17 17:27:00;;;;;;;5.25;2.80;;;;;;;;;;5062675;28;20098;-75
2021/11/17 17:29:29;;;;;;;6.60;3.60;;;;;;;;;;5044589;28;20025;-75
2021/11/17 17:31:58;;;;;;;5.20;2.38;;;;;;;;;;5061294;28;20021;-75
2021/11/17 17:34:24;;;;;;;7.45;3.22;;;;;;;;;;5062887;28;20021;-74
2021/11/17 17:36:53;;;;;;;8.13;3.42;;;;;;;;;;5044773;28;20071;-76
2021/11/17 17:39:19;;;;;;;6.55;2.72;;;;;;;;;;5062172;28;20100;-76
2021/11/17 17:41:44;;;;;;;4.75;2.17;;;;;;;;;;5061860;28;20029;-75
2021/11/17 17:44:10;;;;;;;8.15;3.33;;;;;;;;;;5044302;28;20063;-76